Time;durP1;ratioP1;P1;durP2;ratioP2;P2;SDS_P1;SDS_P2;PMS_P1;PMS_P2;Temp;Humidity;BMP_temperature;BMP_pressure;BME280_temperature;BME280_humidity;BME280_pressure;Samples;Min_cycle;Max_cycle;Signal;HPM_P1;HPM_P2
2022/05/06 00:01:46;;;;;;;21.83;14.32;;;;;;;;;;6160298;23;20063;-92
2022/05/06 00:04:16;;;;;;;22.13;14.25;;;;;;;;;;6135712;23;20020;-91
2022/05/06 00:06:45;;;;;;;21.90;13.63;;;;;;;;;;6161208;23;20016;-89
2022/05/06 00:09:11;;;;;;;20.50;12.57;;;;;;;;;;6135634;23;20024;-90
2022/05/06 00:11:38;;;;;;;15.85;9.60;;;;;;;;;;6160563;23;20013;-89
2022/05/06 00:14:04;;;;;;;15.93;9.88;;;;;;;;;;6135417;23;20020;-92
2022/05/06 00:16:30;;;;;;;15.20;9.45;;;;;;;;;;6180850;23;20389;-91
2022/05/06 00:18:56;;;;;;;18.15;10.68;;;;;;;;;;6189811;23;20292;-89
2022/05/06 00:21:22;;;;;;;12.13;7.80;;;;;;;;;;6190279;23;20016;-93
2022/05/06 00:23:49;;;;;;;11.90;6.68;;;;;;;;;;6166453;23;20008;-90
2022/05/06 00:26:15;;;;;;;8.95;6.65;;;;;;;;;;6215153;23;20087;-90
2022/05/06 00:28:41;;;;;;;13.10;9.38;;;;;;;;;;6164995;23;20017;-90
2022/05/06 00:31:08;;;;;;;16.60;11.57;;;;;;;;;;6190154;23;20008;-89
2022/05/06 00:33:34;;;;;;;17.40;11.13;;;;;;;;;;6190082;23;20024;-90
2022/05/06 00:36:01;;;;;;;17.55;10.43;;;;;;;;;;6164294;23;20338;-91
2022/05/06 00:38:28;;;;;;;14.25;9.52;;;;;;;;;;6165310;23;20019;-90
2022/05/06 00:40:54;;;;;;;20.65;11.95;;;;;;;;;;6164982;23;20091;-89
2022/05/06 00:43:21;;;;;;;19.58;12.40;;;;;;;;;;6164865;23;20016;-92
2022/05/06 00:45:54;;;;;;;20.23;12.88;;;;;;;;;;6164517;23;20385;-89
2022/05/06 00:48:32;;;;;;;19.45;13.25;;;;;;;;;;6165020;23;20013;-90
2022/05/06 00:51:01;;;;;;;21.42;13.82;;;;;;;;;;6190485;23;20466;-89
2022/05/06 00:53:27;;;;;;;19.65;12.85;;;;;;;;;;6165120;23;20470;-90
2022/05/06 00:55:55;;;;;;;21.02;15.18;;;;;;;;;;6189557;23;20394;-89
2022/05/06 00:58:23;;;;;;;23.63;14.65;;;;;;;;;;6189858;23;20019;-90
2022/05/06 01:00:51;;;;;;;21.40;15.32;;;;;;;;;;6189645;23;20015;-91
2022/05/06 01:03:18;;;;;;;22.30;15.10;;;;;;;;;;6189915;23;20019;-90
2022/05/06 01:05:44;;;;;;;24.08;15.55;;;;;;;;;;6189357;23;20421;-90
2022/05/06 01:08:11;;;;;;;23.45;15.35;;;;;;;;;;6189731;23;20023;-91
2022/05/06 01:10:42;;;;;;;20.40;14.23;;;;;;;;;;6165394;23;20020;-90
2022/05/06 01:13:08;;;;;;;23.40;16.40;;;;;;;;;;6189488;23;20087;-90
2022/05/06 01:15:36;;;;;;;25.27;14.95;;;;;;;;;;6162535;23;20093;-89
2022/05/06 01:18:02;;;;;;;20.98;14.13;;;;;;;;;;6164345;23;20473;-89
2022/05/06 01:20:28;;;;;;;21.00;14.43;;;;;;;;;;6189342;23;20019;-89
2022/05/06 01:23:00;;;;;;;20.95;14.43;;;;;;;;;;6216543;23;20018;-89
2022/05/06 01:25:27;;;;;;;19.90;12.30;;;;;;;;;;6189265;23;20039;-92
2022/05/06 01:28:01;;;;;;;15.30;11.05;;;;;;;;;;6189585;23;20024;-91
2022/05/06 01:30:34;;;;;;;20.15;12.50;;;;;;;;;;6164542;23;20017;-91
2022/05/06 01:33:04;;;;;;;16.70;11.55;;;;;;;;;;6165509;23;20066;-90
2022/05/06 01:35:31;;;;;;;19.48;11.55;;;;;;;;;;6189339;23;20009;-91
2022/05/06 01:37:59;;;;;;;18.42;12.68;;;;;;;;;;6164449;23;20030;-90
2022/05/06 01:40:28;;;;;;;18.05;12.68;;;;;;;;;;6164658;23;20015;-93
2022/05/06 01:42:56;;;;;;;21.10;13.60;;;;;;;;;;6189790;23;20016;-91
2022/05/06 01:45:23;;;;;;;17.73;12.20;;;;;;;;;;6164544;23;20013;-93
2022/05/06 01:47:51;;;;;;;16.85;11.45;;;;;;;;;;6164784;23;20338;-90
2022/05/06 01:50:20;;;;;;;16.20;10.30;;;;;;;;;;6164541;23;20017;-90
2022/05/06 01:52:51;;;;;;;18.55;12.35;;;;;;;;;;6189415;23;20016;-91
2022/05/06 01:55:17;;;;;;;21.33;12.65;;;;;;;;;;6164556;23;20008;-92
2022/05/06 01:57:44;;;;;;;19.25;12.05;;;;;;;;;;6189477;23;20015;-91
2022/05/06 02:00:13;;;;;;;20.67;12.77;;;;;;;;;;6164618;23;20013;-91
2022/05/06 02:02:39;;;;;;;22.40;13.55;;;;;;;;;;6164684;23;20024;-91
2022/05/06 02:05:18;;;;;;;19.02;12.70;;;;;;;;;;6189483;23;20012;-89
2022/05/06 02:07:48;;;;;;;20.67;13.25;;;;;;;;;;6189565;23;20023;-92
2022/05/06 02:10:15;;;;;;;18.55;11.80;;;;;;;;;;6165481;23;20067;-93
2022/05/06 02:12:41;;;;;;;22.80;14.68;;;;;;;;;;6166506;23;20079;-91
2022/05/06 02:15:10;;;;;;;22.40;16.10;;;;;;;;;;6185472;23;20013;-90
2022/05/06 02:17:38;;;;;;;22.38;15.82;;;;;;;;;;6135073;23;20013;-92
2022/05/06 02:20:05;;;;;;;25.52;16.52;;;;;;;;;;6135402;23;20049;-91
2022/05/06 02:22:34;;;;;;;24.95;16.85;;;;;;;;;;6135001;23;20025;-92
2022/05/06 02:25:00;;;;;;;21.35;13.38;;;;;;;;;;6134728;23;20020;-92
2022/05/06 02:27:27;;;;;;;22.75;13.95;;;;;;;;;;6159728;23;20009;-90
2022/05/06 02:35:23;;;;;;;11.48;7.72;;;;;;;;;;6159481;23;20013;-90
2022/05/06 02:37:52;;;;;;;13.90;7.65;;;;;;;;;;6186271;23;20013;-90
2022/05/06 02:40:18;;;;;;;10.55;6.85;;;;;;;;;;6159545;23;20056;-92
2022/05/06 02:42:44;;;;;;;12.35;8.23;;;;;;;;;;6159191;23;20028;-90
2022/05/06 02:45:11;;;;;;;12.23;8.27;;;;;;;;;;6134522;23;20510;-91
2022/05/06 02:47:40;;;;;;;15.23;10.27;;;;;;;;;;6135469;23;20017;-92
2022/05/06 02:50:08;;;;;;;16.10;9.60;;;;;;;;;;6134987;23;20091;-92
2022/05/06 02:52:34;;;;;;;14.63;10.23;;;;;;;;;;6159491;23;20071;-92
2022/05/06 02:55:00;;;;;;;17.48;10.70;;;;;;;;;;6159463;23;20013;-91
2022/05/06 02:57:26;;;;;;;15.20;10.43;;;;;;;;;;6159557;23;20009;-91
2022/05/06 02:59:52;;;;;;;15.02;9.93;;;;;;;;;;6161514;23;20079;-91
2022/05/06 03:02:18;;;;;;;18.35;11.65;;;;;;;;;;6160935;23;20021;-92
2022/05/06 03:04:45;;;;;;;17.20;10.18;;;;;;;;;;6161123;23;20071;-91
2022/05/06 03:07:11;;;;;;;17.40;11.18;;;;;;;;;;6160946;23;20021;-91
2022/05/06 03:09:41;;;;;;;17.58;11.10;;;;;;;;;;6136441;23;20009;-90
2022/05/06 03:12:09;;;;;;;22.38;14.15;;;;;;;;;;6136212;23;20200;-93
2022/05/06 03:14:35;;;;;;;15.20;10.25;;;;;;;;;;6136650;23;20016;-90
2022/05/06 03:17:01;;;;;;;18.38;11.85;;;;;;;;;;6161019;23;20021;-91
2022/05/06 03:19:27;;;;;;;12.40;8.25;;;;;;;;;;6136779;23;20013;-92
2022/05/06 03:21:58;;;;;;;17.67;11.20;;;;;;;;;;6161316;23;20013;-92
2022/05/06 03:24:28;;;;;;;18.67;11.27;;;;;;;;;;6137594;23;20023;-92
2022/05/06 03:26:55;;;;;;;16.80;9.43;;;;;;;;;;6160997;23;20013;-93
2022/05/06 03:29:21;;;;;;;19.60;12.85;;;;;;;;;;6161102;23;20013;-91
2022/05/06 03:31:47;;;;;;;22.23;13.73;;;;;;;;;;6136138;23;20039;-91
2022/05/06 03:34:15;;;;;;;21.88;14.02;;;;;;;;;;6160767;23;20016;-89
2022/05/06 03:36:41;;;;;;;19.55;12.13;;;;;;;;;;6135818;23;20518;-92
2022/05/06 03:39:08;;;;;;;21.60;12.73;;;;;;;;;;6160755;23;20092;-91
2022/05/06 03:41:39;;;;;;;19.00;11.15;;;;;;;;;;6161208;23;20013;-93
2022/05/06 03:44:06;;;;;;;18.75;11.40;;;;;;;;;;6136671;23;20373;-93
2022/05/06 03:46:34;;;;;;;19.30;12.50;;;;;;;;;;6160729;23;20013;-92
2022/05/06 03:49:01;;;;;;;16.00;11.25;;;;;;;;;;6136760;23;20017;-93
2022/05/06 03:51:32;;;;;;;14.85;10.73;;;;;;;;;;6161065;23;20009;-91
2022/05/06 03:54:01;;;;;;;18.27;11.55;;;;;;;;;;6137733;23;20521;-93
2022/05/06 03:56:27;;;;;;;17.85;11.02;;;;;;;;;;6136544;23;20009;-93
2022/05/06 03:58:54;;;;;;;15.63;11.18;;;;;;;;;;6161380;23;20009;-93
2022/05/06 04:01:22;;;;;;;17.83;11.65;;;;;;;;;;6161026;23;20013;-93
2022/05/06 04:03:51;;;;;;;15.20;10.85;;;;;;;;;;6161117;23;20089;-93
2022/05/06 04:06:17;;;;;;;17.73;12.48;;;;;;;;;;6135967;23;20407;-94
2022/05/06 04:08:43;;;;;;;18.70;11.80;;;;;;;;;;6136255;23;20064;-92
2022/05/06 04:11:13;;;;;;;17.88;11.05;;;;;;;;;;6160246;23;20013;-90
2022/05/06 04:13:39;;;;;;;13.77;9.60;;;;;;;;;;6161183;23;20026;-92
2022/05/06 04:16:07;;;;;;;13.35;9.13;;;;;;;;;;6151748;23;20342;-93
2022/05/06 04:18:33;;;;;;;15.27;10.55;;;;;;;;;;6165565;23;20016;-91
2022/05/06 04:23:46;;;;;;;24.23;14.60;;;;;;;;;;6190350;23;20020;-92
2022/05/06 04:26:12;;;;;;;20.80;12.07;;;;;;;;;;6189811;23;20036;-91
2022/05/06 04:28:39;;;;;;;17.60;11.00;;;;;;;;;;6190278;23;20016;-93
2022/05/06 04:31:06;;;;;;;16.00;11.05;;;;;;;;;;6165443;23;20013;-92
2022/05/06 04:33:34;;;;;;;19.63;12.75;;;;;;;;;;6190653;23;20028;-92
2022/05/06 04:36:00;;;;;;;26.05;15.60;;;;;;;;;;6165061;23;20092;-92
2022/05/06 04:38:27;;;;;;;26.92;15.38;;;;;;;;;;6165424;23;20009;-91
2022/05/06 04:40:58;;;;;;;47.22;20.80;;;;;;;;;;6190731;23;20020;-94
2022/05/06 04:43:41;;;;;;;44.90;18.48;;;;;;;;;;5110886;27;20130;-93
2022/05/06 04:46:09;;;;;;;39.17;18.15;;;;;;;;;;5069727;28;20506;-93
2022/05/06 04:48:43;;;;;;;41.15;18.75;;;;;;;;;;5053507;28;20094;-92
2022/05/06 04:51:09;;;;;;;35.83;18.35;;;;;;;;;;5053186;28;20051;-90
2022/05/06 04:53:35;;;;;;;57.75;21.90;;;;;;;;;;5052470;28;20041;-90
2022/05/06 04:56:03;;;;;;;73.10;24.45;;;;;;;;;;5069479;28;20389;-92
2022/05/06 04:58:30;;;;;;;47.88;21.50;;;;;;;;;;5069328;28;20079;-91
2022/05/06 05:00:56;;;;;;;50.75;21.65;;;;;;;;;;5052816;28;20132;-90
2022/05/06 05:03:22;;;;;;;67.45;24.83;;;;;;;;;;5052484;28;20045;-91
2022/05/06 05:05:49;;;;;;;58.65;24.33;;;;;;;;;;5069511;28;20123;-92
2022/05/06 05:08:16;;;;;;;62.78;26.05;;;;;;;;;;5052387;28;20040;-92
2022/05/06 05:10:42;;;;;;;83.93;25.23;;;;;;;;;;5052948;28;20068;-91
2022/05/06 05:13:09;;;;;;;104.22;24.60;;;;;;;;;;5052397;28;20051;-91
2022/05/06 05:15:35;;;;;;;62.55;22.75;;;;;;;;;;5068850;28;20048;-92
2022/05/06 05:18:01;;;;;;;58.90;22.23;;;;;;;;;;5068956;28;20041;-91
2022/05/06 05:20:27;;;;;;;43.50;22.02;;;;;;;;;;5053018;28;20055;-92
2022/05/06 05:22:56;;;;;;;48.80;22.60;;;;;;;;;;5052245;28;20067;-92
2022/05/06 05:25:22;;;;;;;36.97;22.83;;;;;;;;;;5052643;28;20044;-89
2022/05/06 05:27:48;;;;;;;34.08;22.55;;;;;;;;;;5052692;28;20032;-92
2022/05/06 05:30:17;;;;;;;46.53;24.05;;;;;;;;;;5052812;28;20131;-92
2022/05/06 05:32:43;;;;;;;38.25;23.20;;;;;;;;;;5052195;28;20051;-93
2022/05/06 05:35:10;;;;;;;33.10;22.27;;;;;;;;;;5052900;28;20045;-93
2022/05/06 05:37:38;;;;;;;44.30;23.83;;;;;;;;;;5052024;28;20037;-93
2022/05/06 05:40:05;;;;;;;33.30;22.33;;;;;;;;;;5068698;28;20563;-93
2022/05/06 05:42:39;;;;;;;36.92;22.85;;;;;;;;;;5052310;28;20057;-91
2022/05/06 05:50:36;;;;;;;23.05;14.90;;;;;;;;;;5069579;28;20044;-93
2022/05/06 05:53:02;;;;;;;21.70;15.77;;;;;;;;;;5049860;28;20492;-91
2022/05/06 05:55:30;;;;;;;27.38;16.60;;;;;;;;;;5039272;28;20079;-93
2022/05/06 05:57:56;;;;;;;27.40;17.88;;;;;;;;;;5038224;28;20041;-92
2022/05/06 06:00:22;;;;;;;29.58;19.05;;;;;;;;;;5038860;28;20098;-92
2022/05/06 06:02:48;;;;;;;33.13;20.65;;;;;;;;;;5055404;28;20047;-92
2022/05/06 06:05:14;;;;;;;38.80;23.45;;;;;;;;;;5039148;28;20044;-92
2022/05/06 06:07:40;;;;;;;39.03;23.77;;;;;;;;;;5055189;28;20179;-95
2022/05/06 06:10:07;;;;;;;42.58;27.08;;;;;;;;;;5038772;28;20140;-94
2022/05/06 06:12:33;;;;;;;42.38;26.67;;;;;;;;;;5055516;28;20036;-93
2022/05/06 06:15:00;;;;;;;44.13;27.67;;;;;;;;;;5055389;28;20049;-91
2022/05/06 06:17:28;;;;;;;34.70;23.58;;;;;;;;;;5038658;28;20071;-94
2022/05/06 06:19:54;;;;;;;30.30;20.30;;;;;;;;;;5039222;28;20452;-93
2022/05/06 06:25:10;;;;;;;29.10;19.48;;;;;;;;;;5050368;28;20041;-92
2022/05/06 06:27:39;;;;;;;33.35;19.33;;;;;;;;;;5032015;28;20393;-92
2022/05/06 06:30:05;;;;;;;31.92;21.27;;;;;;;;;;5041899;28;20041;-93
2022/05/06 06:32:31;;;;;;;33.42;22.23;;;;;;;;;;5047411;28;20075;-91
2022/05/06 06:34:57;;;;;;;38.17;24.55;;;;;;;;;;5034650;28;20045;-92
2022/05/06 06:37:25;;;;;;;37.55;24.05;;;;;;;;;;5044840;28;20037;-93
2022/05/06 06:39:51;;;;;;;35.55;24.58;;;;;;;;;;5032458;28;20041;-93
2022/05/06 06:42:17;;;;;;;38.20;24.25;;;;;;;;;;5033195;28;20055;-92
2022/05/06 06:44:45;;;;;;;38.63;24.60;;;;;;;;;;5047074;28;20044;-88
2022/05/06 06:47:11;;;;;;;36.85;24.33;;;;;;;;;;5056100;28;20041;-89
2022/05/06 06:49:45;;;;;;;35.42;23.70;;;;;;;;;;5073661;28;20028;-95
2022/05/06 06:52:15;;;;;;;36.90;24.60;;;;;;;;;;5070456;28;20053;-91
2022/05/06 06:54:41;;;;;;;39.88;25.45;;;;;;;;;;5051326;28;20104;-89
2022/05/06 06:57:10;;;;;;;42.47;25.90;;;;;;;;;;5059159;28;20043;-90
2022/05/06 06:59:36;;;;;;;40.53;26.73;;;;;;;;;;5075973;28;20052;-92
2022/05/06 07:02:03;;;;;;;42.92;26.77;;;;;;;;;;5051112;28;20094;-91
2022/05/06 07:04:30;;;;;;;39.22;25.98;;;;;;;;;;5044048;28;20022;-92
2022/05/06 07:12:25;;;;;;;37.00;26.55;;;;;;;;;;5068492;28;20088;-91
2022/05/06 07:14:51;;;;;;;39.50;26.88;;;;;;;;;;5051824;28;20067;-91
2022/05/06 07:17:17;;;;;;;36.85;25.80;;;;;;;;;;5063046;28;20037;-92
2022/05/06 07:19:43;;;;;;;36.30;24.25;;;;;;;;;;5067962;28;20105;-93
2022/05/06 07:22:09;;;;;;;39.03;25.40;;;;;;;;;;5058717;28;20033;-91
2022/05/06 07:27:23;;;;;;;35.72;23.63;;;;;;;;;;5017608;28;20039;-90
2022/05/06 07:29:50;;;;;;;33.08;22.17;;;;;;;;;;4986400;28;20181;-92
2022/05/06 07:32:18;;;;;;;33.88;22.50;;;;;;;;;;5002340;28;20057;-91
2022/05/06 07:34:44;;;;;;;30.77;21.65;;;;;;;;;;4985987;28;20027;-92
2022/05/06 07:37:10;;;;;;;32.72;22.05;;;;;;;;;;5016759;28;20030;-92
2022/05/06 07:39:39;;;;;;;30.55;21.60;;;;;;;;;;5016718;28;20110;-92
2022/05/06 07:42:05;;;;;;;30.90;21.58;;;;;;;;;;5002281;28;20030;-92
2022/05/06 07:44:31;;;;;;;32.63;21.88;;;;;;;;;;5002160;28;20038;-90
2022/05/06 07:47:00;;;;;;;30.63;21.67;;;;;;;;;;5005503;28;20122;-93
2022/05/06 07:49:27;;;;;;;29.35;21.30;;;;;;;;;;4998506;28;20486;-91
2022/05/06 07:51:53;;;;;;;28.35;21.13;;;;;;;;;;5014786;28;20505;-93
2022/05/06 07:54:19;;;;;;;30.20;20.58;;;;;;;;;;4993855;28;20046;-91
2022/05/06 07:56:45;;;;;;;31.92;21.95;;;;;;;;;;4977946;28;20073;-91
2022/05/06 07:59:11;;;;;;;33.80;22.80;;;;;;;;;;4977486;28;20100;-89
2022/05/06 08:04:36;;;;;;;33.03;22.73;;;;;;;;;;4993568;28;20500;-91
2022/05/06 08:07:03;;;;;;;32.30;21.30;;;;;;;;;;5009778;28;20042;-92
2022/05/06 08:09:29;;;;;;;33.72;22.58;;;;;;;;;;4977132;28;20046;-93
2022/05/06 08:11:55;;;;;;;32.28;22.02;;;;;;;;;;4993203;28;20050;-90
2022/05/06 08:14:24;;;;;;;32.85;22.13;;;;;;;;;;4994609;28;20035;-90
2022/05/06 08:16:53;;;;;;;35.30;22.67;;;;;;;;;;4993284;28;20460;-93
2022/05/06 08:19:20;;;;;;;37.30;22.65;;;;;;;;;;4978852;28;20030;-93
2022/05/06 08:21:49;;;;;;;35.88;23.05;;;;;;;;;;4981645;28;20034;-93
2022/05/06 08:24:17;;;;;;;33.83;22.52;;;;;;;;;;4977217;28;20045;-92
2022/05/06 08:26:44;;;;;;;32.55;21.77;;;;;;;;;;4993460;28;20404;-92
2022/05/06 08:29:10;;;;;;;30.50;22.02;;;;;;;;;;4993656;28;20050;-91
2022/05/06 08:31:39;;;;;;;33.70;22.52;;;;;;;;;;4977409;28;20481;-91
2022/05/06 08:34:09;;;;;;;31.35;21.75;;;;;;;;;;4976621;28;20101;-92
2022/05/06 08:36:37;;;;;;;34.17;22.40;;;;;;;;;;4976914;28;20038;-92
2022/05/06 08:39:04;;;;;;;32.10;21.83;;;;;;;;;;4992720;28;20038;-91
2022/05/06 08:41:35;;;;;;;32.13;21.60;;;;;;;;;;4976863;28;20508;-91
2022/05/06 09:18:45;;;;;;;20.30;14.07;;;;;;;;;;5281084;23;20114;-94
2022/05/06 09:21:14;;;;;;;20.20;13.43;;;;;;;;;;4961211;28;20051;-90
2022/05/06 09:23:40;;;;;;;17.33;12.70;;;;;;;;;;4956417;28;20177;-89
2022/05/06 09:26:15;;;;;;;17.73;12.30;;;;;;;;;;4957164;28;20070;-91
2022/05/06 09:28:41;;;;;;;14.63;10.23;;;;;;;;;;4958097;28;20450;-92
2022/05/06 09:31:11;;;;;;;15.27;10.82;;;;;;;;;;4960946;28;20050;-91
2022/05/06 09:33:42;;;;;;;13.98;10.02;;;;;;;;;;4960631;28;20101;-93
2022/05/06 09:36:28;;;;;;;14.25;9.23;;;;;;;;;;4960475;28;20053;-93
2022/05/06 09:39:02;;;;;;;12.15;9.00;;;;;;;;;;4960373;28;20043;-91
2022/05/06 09:41:28;;;;;;;11.02;7.07;;;;;;;;;;4960164;28;20138;-91
2022/05/06 09:43:58;;;;;;;9.85;6.43;;;;;;;;;;4960463;28;20086;-91
2022/05/06 09:46:24;;;;;;;8.98;6.68;;;;;;;;;;4944021;28;20049;-92
2022/05/06 09:48:57;;;;;;;10.38;6.88;;;;;;;;;;4960261;28;20038;-90
2022/05/06 09:51:27;;;;;;;7.43;5.32;;;;;;;;;;4944283;28;20165;-90
2022/05/06 09:53:57;;;;;;;6.47;4.63;;;;;;;;;;4960314;28;20125;-90
2022/05/06 09:56:24;;;;;;;7.43;5.40;;;;;;;;;;4959522;28;20034;-91
2022/05/06 09:58:53;;;;;;;7.20;4.13;;;;;;;;;;4943222;28;20097;-89
2022/05/06 10:01:20;;;;;;;7.35;4.03;;;;;;;;;;4958256;28;20126;-89
2022/05/06 10:03:46;;;;;;;8.80;5.00;;;;;;;;;;4943727;28;20078;-90
2022/05/06 10:06:12;;;;;;;8.55;5.30;;;;;;;;;;4958973;28;20568;-90
2022/05/06 10:08:42;;;;;;;7.28;4.60;;;;;;;;;;4959744;28;20483;-90
2022/05/06 10:11:14;;;;;;;7.75;4.50;;;;;;;;;;4959350;28;20134;-91
2022/05/06 10:13:46;;;;;;;6.95;4.60;;;;;;;;;;4959628;28;20090;-91
2022/05/06 10:16:12;;;;;;;6.85;4.68;;;;;;;;;;4942789;28;20054;-90
2022/05/06 10:18:39;;;;;;;11.23;4.82;;;;;;;;;;4959340;28;20588;-90
2022/05/06 10:21:06;;;;;;;8.43;4.45;;;;;;;;;;4943205;28;20129;-88
2022/05/06 10:23:43;;;;;;;5.95;3.75;;;;;;;;;;4959411;28;20093;-90
2022/05/06 10:26:09;;;;;;;8.35;3.08;;;;;;;;;;4942381;28;20038;-88
2022/05/06 10:34:14;;;;;;;4.50;2.95;;;;;;;;;;4959589;28;20039;-91
2022/05/06 10:36:44;;;;;;;6.30;3.90;;;;;;;;;;4959215;28;20046;-90
2022/05/06 10:39:29;;;;;;;5.32;3.63;;;;;;;;;;4959506;28;20564;-89
2022/05/06 10:41:59;;;;;;;6.90;4.15;;;;;;;;;;4959493;28;20051;-90
2022/05/06 10:44:51;;;;;;;5.57;3.53;;;;;;;;;;4943401;28;20081;-90
2022/05/06 10:47:18;;;;;;;7.40;4.05;;;;;;;;;;4941505;28;20051;-89
2022/05/06 10:49:46;;;;;;;5.93;3.53;;;;;;;;;;4959278;28;20517;-90
2022/05/06 10:52:28;;;;;;;5.70;3.70;;;;;;;;;;4958720;28;20058;-91
2022/05/06 10:55:03;;;;;;;4.80;3.17;;;;;;;;;;4959303;28;20054;-89
2022/05/06 10:57:30;;;;;;;5.10;2.90;;;;;;;;;;4958763;28;20054;-90
2022/05/06 10:59:57;;;;;;;5.30;3.13;;;;;;;;;;4959026;28;20089;-90
2022/05/06 11:02:27;;;;;;;5.63;3.50;;;;;;;;;;4958951;28;20558;-89
2022/05/06 11:04:54;;;;;;;6.18;4.22;;;;;;;;;;4959190;28;20512;-90
2022/05/06 11:07:20;;;;;;;6.55;4.45;;;;;;;;;;4942411;28;20082;-90
2022/05/06 11:09:47;;;;;;;6.32;4.03;;;;;;;;;;4958874;28;20030;-90
2022/05/06 11:12:40;;;;;;;5.82;4.00;;;;;;;;;;4976143;28;20398;-91
2022/05/06 11:15:08;;;;;;;6.88;4.18;;;;;;;;;;4937429;28;20093;-90
2022/05/06 11:17:34;;;;;;;5.88;3.83;;;;;;;;;;4942491;28;20058;-91
2022/05/06 11:20:00;;;;;;;6.47;3.83;;;;;;;;;;4959542;28;20046;-89
2022/05/06 11:22:27;;;;;;;6.63;4.05;;;;;;;;;;4942249;28;20092;-90
2022/05/06 11:24:58;;;;;;;9.25;5.47;;;;;;;;;;4942628;28;20049;-91
2022/05/06 11:27:24;;;;;;;8.38;4.88;;;;;;;;;;4942159;28;20046;-89
2022/05/06 11:29:57;;;;;;;6.70;4.20;;;;;;;;;;4959288;28;20417;-90
2022/05/06 11:32:28;;;;;;;6.35;4.10;;;;;;;;;;4958004;28;20129;-90
2022/05/06 11:34:56;;;;;;;6.13;3.90;;;;;;;;;;4958523;28;20050;-89
2022/05/06 11:37:23;;;;;;;5.82;3.85;;;;;;;;;;4942075;28;20502;-90
2022/05/06 11:39:49;;;;;;;8.07;4.50;;;;;;;;;;4958174;28;20516;-89
2022/05/06 11:42:22;;;;;;;5.43;3.38;;;;;;;;;;4957361;28;20043;-90
2022/05/06 11:47:47;;;;;;;6.18;3.60;;;;;;;;;;4957824;28;20042;-90
2022/05/06 11:50:13;;;;;;;5.78;3.65;;;;;;;;;;4958195;28;20094;-91
2022/05/06 11:52:42;;;;;;;6.32;3.25;;;;;;;;;;4957112;28;20077;-90
2022/05/06 11:55:09;;;;;;;5.55;2.95;;;;;;;;;;4958097;28;20138;-91
2022/05/06 11:57:36;;;;;;;7.60;3.15;;;;;;;;;;4941599;28;20043;-88
2022/05/06 12:00:05;;;;;;;7.68;3.13;;;;;;;;;;4957643;28;20109;-88
2022/05/06 12:02:32;;;;;;;6.75;3.00;;;;;;;;;;4957396;28;20047;-90
2022/05/06 12:05:03;;;;;;;5.90;2.67;;;;;;;;;;4957746;28;20123;-90
2022/05/06 12:07:41;;;;;;;5.63;2.92;;;;;;;;;;4941487;28;20039;-90
2022/05/06 12:10:08;;;;;;;4.25;1.85;;;;;;;;;;4957922;28;20039;-91
2022/05/06 12:12:34;;;;;;;4.95;1.92;;;;;;;;;;4941489;28;20049;-91
2022/05/06 12:15:10;;;;;;;4.10;1.80;;;;;;;;;;4941735;28;20129;-91
2022/05/06 12:17:39;;;;;;;6.95;2.05;;;;;;;;;;4941058;28;20134;-89
2022/05/06 12:20:05;;;;;;;5.35;2.47;;;;;;;;;;4941486;28;20042;-89
2022/05/06 12:22:32;;;;;;;6.35;2.75;;;;;;;;;;4941336;28;20133;-89
2022/05/06 12:24:58;;;;;;;5.53;2.53;;;;;;;;;;4942294;28;20577;-88
2022/05/06 12:27:31;;;;;;;6.47;2.00;;;;;;;;;;4957423;28;20049;-91
2022/05/06 12:29:58;;;;;;;6.65;2.45;;;;;;;;;;4957034;28;20097;-91
2022/05/06 12:32:24;;;;;;;4.13;2.05;;;;;;;;;;4941246;28;20074;-91
2022/05/06 12:35:03;;;;;;;5.90;2.40;;;;;;;;;;4957785;28;20050;-89
2022/05/06 12:37:29;;;;;;;7.25;2.58;;;;;;;;;;4956995;28;20049;-91
2022/05/06 12:39:58;;;;;;;4.97;2.70;;;;;;;;;;4941974;28;20043;-90
2022/05/06 12:42:24;;;;;;;6.50;2.58;;;;;;;;;;4957034;28;20046;-90
2022/05/06 12:44:50;;;;;;;4.68;2.50;;;;;;;;;;4941219;28;20034;-90
2022/05/06 12:50:09;;;;;;;5.22;2.40;;;;;;;;;;4957055;28;20043;-90
2022/05/06 12:52:35;;;;;;;4.88;2.13;;;;;;;;;;4940964;28;20379;-90
2022/05/06 12:55:04;;;;;;;12.68;2.55;;;;;;;;;;4957094;28;20053;-89
2022/05/06 12:57:30;;;;;;;8.30;2.20;;;;;;;;;;4940888;28;20043;-90
2022/05/06 12:59:56;;;;;;;5.80;1.95;;;;;;;;;;4956877;28;20050;-91
2022/05/06 13:02:22;;;;;;;5.63;1.90;;;;;;;;;;4956867;28;20039;-89
2022/05/06 13:04:49;;;;;;;5.53;2.03;;;;;;;;;;4959740;28;20404;-90
2022/05/06 13:07:16;;;;;;;4.18;1.90;;;;;;;;;;4960749;28;20046;-90
2022/05/06 13:09:42;;;;;;;4.07;1.60;;;;;;;;;;4960946;28;20390;-91
2022/05/06 13:12:10;;;;;;;7.25;1.83;;;;;;;;;;4944918;28;20043;-88
2022/05/06 13:14:36;;;;;;;3.05;1.27;;;;;;;;;;4944845;28;20039;-90
2022/05/06 13:17:02;;;;;;;10.50;1.65;;;;;;;;;;4960110;28;20113;-89
2022/05/06 13:19:31;;;;;;;5.55;1.27;;;;;;;;;;4978272;28;20082;-89
2022/05/06 13:21:58;;;;;;;4.00;1.60;;;;;;;;;;4960466;28;20043;-89
2022/05/06 13:24:24;;;;;;;3.75;1.63;;;;;;;;;;4944386;28;20149;-89
2022/05/06 13:26:50;;;;;;;4.43;1.55;;;;;;;;;;4960484;28;20490;-89
2022/05/06 13:29:16;;;;;;;3.30;1.60;;;;;;;;;;4944566;28;20035;-91
2022/05/06 13:31:42;;;;;;;5.43;1.58;;;;;;;;;;4960352;28;20308;-91
2022/05/06 13:34:11;;;;;;;7.63;1.70;;;;;;;;;;4944692;28;20077;-91
2022/05/06 13:36:38;;;;;;;9.90;1.95;;;;;;;;;;4960138;28;20035;-91
2022/05/06 13:39:04;;;;;;;3.40;1.50;;;;;;;;;;4960390;28;20046;-89
2022/05/06 13:41:30;;;;;;;4.50;1.50;;;;;;;;;;4944822;28;20039;-91
2022/05/06 13:43:56;;;;;;;4.88;1.70;;;;;;;;;;4960102;28;20606;-89
2022/05/06 13:46:22;;;;;;;8.93;2.03;;;;;;;;;;4960098;28;20126;-89
2022/05/06 13:48:48;;;;;;;5.40;1.77;;;;;;;;;;4944125;28;20039;-89
2022/05/06 13:51:15;;;;;;;5.22;1.90;;;;;;;;;;4944236;28;20046;-90
2022/05/06 13:53:41;;;;;;;4.65;2.05;;;;;;;;;;4959644;28;20399;-89
2022/05/06 13:59:03;;;;;;;6.97;2.63;;;;;;;;;;4959945;28;20502;-89
2022/05/06 14:01:30;;;;;;;4.63;2.90;;;;;;;;;;4944107;28;20047;-89
2022/05/06 14:03:58;;;;;;;6.30;2.58;;;;;;;;;;4959897;28;20082;-88
2022/05/06 14:06:24;;;;;;;4.93;2.78;;;;;;;;;;4943831;28;20043;-91
2022/05/06 14:08:50;;;;;;;6.70;2.97;;;;;;;;;;4943614;28;20038;-90
2022/05/06 14:11:18;;;;;;;8.77;2.55;;;;;;;;;;4943899;28;20375;-91
2022/05/06 14:13:45;;;;;;;4.60;2.53;;;;;;;;;;4960137;28;20061;-91
2022/05/06 14:16:11;;;;;;;10.18;3.15;;;;;;;;;;4959165;28;20094;-90
2022/05/06 14:18:37;;;;;;;10.60;3.60;;;;;;;;;;4959712;28;20062;-91
2022/05/06 14:21:03;;;;;;;8.85;2.72;;;;;;;;;;4960058;28;20050;-89
2022/05/06 14:23:29;;;;;;;5.95;2.60;;;;;;;;;;4943713;28;20454;-89
2022/05/06 14:25:56;;;;;;;7.35;2.85;;;;;;;;;;4959476;28;20045;-90
2022/05/06 14:28:22;;;;;;;5.85;2.88;;;;;;;;;;4943183;28;20101;-88
2022/05/06 14:30:48;;;;;;;5.28;3.03;;;;;;;;;;4943424;28;20043;-89
2022/05/06 14:33:17;;;;;;;5.20;2.75;;;;;;;;;;4943098;28;20046;-89
2022/05/06 14:35:46;;;;;;;4.80;2.35;;;;;;;;;;4943340;28;20045;-89
2022/05/06 14:38:12;;;;;;;8.65;2.60;;;;;;;;;;4943033;28;20402;-90
2022/05/06 14:40:41;;;;;;;5.97;2.67;;;;;;;;;;4960116;28;20126;-88
2022/05/06 14:43:10;;;;;;;7.30;2.90;;;;;;;;;;4958877;28;20053;-88
2022/05/06 14:45:39;;;;;;;9.80;3.05;;;;;;;;;;4959704;28;20061;-91
2022/05/06 14:48:05;;;;;;;7.38;3.20;;;;;;;;;;4958967;28;20050;-90
2022/05/06 14:50:31;;;;;;;5.85;2.88;;;;;;;;;;4959465;28;20047;-88
2022/05/06 14:52:57;;;;;;;6.90;3.17;;;;;;;;;;4958708;28;20418;-88
2022/05/06 14:55:24;;;;;;;8.23;3.60;;;;;;;;;;4958889;28;20055;-88
2022/05/06 14:57:51;;;;;;;8.63;3.47;;;;;;;;;;4942756;28;20545;-89
2022/05/06 15:00:17;;;;;;;9.30;3.38;;;;;;;;;;4958876;28;20062;-90
2022/05/06 15:02:43;;;;;;;6.07;3.22;;;;;;;;;;4975643;28;20145;-90
2022/05/06 15:05:09;;;;;;;7.78;3.80;;;;;;;;;;4958637;28;20039;-91
2022/05/06 15:07:39;;;;;;;7.55;3.80;;;;;;;;;;4958947;28;20039;-91
2022/05/06 15:10:05;;;;;;;9.05;4.00;;;;;;;;;;4958879;28;20039;-91
2022/05/06 15:12:34;;;;;;;7.35;3.90;;;;;;;;;;4975830;28;20081;-92
2022/05/06 15:15:00;;;;;;;7.85;4.43;;;;;;;;;;4958459;28;20411;-92
2022/05/06 15:17:26;;;;;;;11.85;4.00;;;;;;;;;;4955535;28;20055;-89
2022/05/06 15:19:53;;;;;;;7.80;3.90;;;;;;;;;;4939135;29;20058;-90
2022/05/06 15:22:19;;;;;;;9.40;4.13;;;;;;;;;;4955366;28;20086;-89
2022/05/06 15:24:46;;;;;;;11.10;4.97;;;;;;;;;;4939254;29;20043;-89
2022/05/06 15:27:12;;;;;;;9.35;5.00;;;;;;;;;;4938548;29;20153;-90
2022/05/06 15:29:40;;;;;;;9.50;5.00;;;;;;;;;;4954851;28;20494;-89
2022/05/06 15:32:09;;;;;;;9.52;4.90;;;;;;;;;;4939038;29;20039;-90
2022/05/06 15:34:36;;;;;;;9.07;5.10;;;;;;;;;;4954704;28;20047;-89
2022/05/06 15:37:02;;;;;;;13.90;5.50;;;;;;;;;;4955262;29;20483;-89
2022/05/06 15:39:30;;;;;;;9.18;5.90;;;;;;;;;;4954562;28;20043;-91
2022/05/06 15:41:57;;;;;;;9.88;5.90;;;;;;;;;;4954560;28;20443;-89
2022/05/06 15:44:26;;;;;;;21.73;7.75;;;;;;;;;;4938921;29;20060;-89
2022/05/06 15:46:52;;;;;;;10.23;6.60;;;;;;;;;;4954657;28;20039;-89
2022/05/06 15:49:19;;;;;;;12.00;7.15;;;;;;;;;;4938673;29;20039;-90